Terminal Aerodrome Forecast
Issued by NWS

Home | Current Version | Previous Version | Text Only | Print | Product List | Glossary Off
Versions: 1 2 3 4 5 6 7 8 9 10 11 12 13 14 15 16 17 18 19

775
FTUS43 KBIS 120527
TAFDIK
TAF
KDIK 120527Z 1206/1306 36006KT P6SM -SN OVC009
     FM120900 36008KT P6SM OVC006
     FM121500 04008KT P6SM OVC015
     FM121900 08007KT P6SM BKN040
     FM122300 11009KT P6SM BKN070
     FM130400 13012KT P6SM OVC015=

USA.gov is the U.S. government's official web portal to all federal, state and local government web resources and services.